Vista Alegre, Puerto Rico
Current Conditions -  °F | °C
As of 1:45 PM on Thursday 29 Jan 2015 (Local Time) from TJIG Reporting Station
Scattered Clouds Scattered Clouds  
Wind Chill: 82°   Ceiling: Unl
Heat Index: 85°   Visibility: 10mi
Dew Point: 68°   Wind: 12mph
Humidity: 62%   Direction: 90°E
Pressure: 30.01"   Gusts: NA
Location:  18.0055°N, 66.6209°W
Report Text: TJIG 291745Z 09010KT 10SM SCT060 28/20 A3001 RMK RY09 IN USE ATIS I
Loading
Personal Weather Stations






























Interactive Weather Map New forecast layout! Learn more

10-Day Weather Forecast

Advertisements
Track Severe Weather on mobile